Time;durP1;ratioP1;P1;durP2;ratioP2;P2;SDS_P1;SDS_P2;PMS_P1;PMS_P2;Temp;Humidity;BMP_temperature;BMP_pressure;BME280_temperature;BME280_humidity;BME280_pressure;Samples;Min_cycle;Max_cycle;Signal;HPM_P1;HPM_P2
2022/01/11 00:01:20;;;;;;;18.33;11.50;;;;;;;-1.75;100.00;101471.25;5028452;28;20593;-57
2022/01/11 00:03:45;;;;;;;17.83;10.97;;;;;;;-1.78;100.00;101461.94;5056576;28;20179;-57
2022/01/11 00:06:24;;;;;;;14.00;10.60;;;;;;;-1.77;100.00;101472.88;5072664;28;20215;-57
2022/01/11 00:08:51;;;;;;;17.90;10.33;;;;;;;-1.75;100.00;101474.59;5072462;28;20167;-57
2022/01/11 00:11:16;;;;;;;17.37;11.57;;;;;;;-1.69;100.00;101477.25;5061197;28;20227;-57
2022/01/11 00:13:42;;;;;;;20.93;11.93;;;;;;;-1.71;100.00;101473.00;5071831;28;20269;-57
2022/01/11 00:16:09;;;;;;;17.13;11.47;;;;;;;-1.69;100.00;101478.94;5061136;28;20703;-57
2022/01/11 00:18:36;;;;;;;16.53;11.20;;;;;;;-1.71;100.00;101473.88;5071617;28;20596;-57
2022/01/11 00:21:02;;;;;;;15.67;11.37;;;;;;;-1.71;100.00;101476.38;5061199;28;20489;-57
2022/01/11 00:25:54;;;;;;;19.17;12.07;;;;;;;-1.95;100.00;101485.19;5072128;28;20177;-58
2022/01/11 00:28:21;;;;;;;22.43;11.17;;;;;;;-1.83;100.00;101481.19;5072142;28;20627;-57
2022/01/11 00:30:49;;;;;;;20.50;13.00;;;;;;;-1.82;100.00;101486.28;5040774;28;20616;-57
2022/01/11 00:33:20;;;;;;;19.63;12.23;;;;;;;-1.76;100.00;101483.03;5071214;28;20178;-57
2022/01/11 00:35:57;;;;;;;20.60;12.33;;;;;;;-1.81;100.00;101482.06;5071376;28;20431;-57
2022/01/11 00:38:25;;;;;;;16.73;12.27;;;;;;;-1.83;100.00;101478.69;5072934;28;20257;-57
2022/01/11 00:40:53;;;;;;;17.33;12.60;;;;;;;-1.93;100.00;101479.31;5061036;28;20291;-57
2022/01/11 00:43:21;;;;;;;18.33;11.90;;;;;;;-1.93;100.00;101486.88;5071214;28;20172;-57
2022/01/11 00:45:47;;;;;;;19.13;12.10;;;;;;;-1.96;100.00;101482.63;5071744;28;20517;-57
2022/01/11 00:48:12;;;;;;;21.63;12.63;;;;;;;-2.09;100.00;101483.22;5056347;28;20193;-57
2022/01/11 00:50:38;;;;;;;16.73;12.47;;;;;;;-2.15;100.00;101486.47;5040558;28;21000;-57
2022/01/11 00:53:05;;;;;;;19.13;11.77;;;;;;;-2.06;100.00;101485.78;5049420;28;20186;-56
2022/01/11 00:55:31;;;;;;;18.27;11.97;;;;;;;-2.19;100.00;101488.06;5031555;28;20172;-56
2022/01/11 00:57:57;;;;;;;17.83;11.57;;;;;;;-2.08;100.00;101485.78;5031441;28;20509;-56
2022/01/11 01:00:22;;;;;;;15.47;10.37;;;;;;;-2.12;100.00;101491.59;5023644;28;20359;-56
2022/01/11 01:02:48;;;;;;;23.10;10.93;;;;;;;-2.10;100.00;101489.91;5050478;28;20728;-57
2022/01/11 01:05:17;;;;;;;17.33;12.20;;;;;;;-2.16;100.00;101490.66;5051072;28;20167;-57
2022/01/11 01:07:43;;;;;;;18.27;12.27;;;;;;;-2.14;100.00;101495.72;5051295;28;20182;-57
2022/01/11 01:10:18;;;;;;;16.30;11.13;;;;;;;-2.08;100.00;101495.84;5040847;28;20411;-57
2022/01/11 01:12:44;;;;;;;18.90;11.30;;;;;;;-2.13;100.00;101498.28;5050298;28;20555;-57
2022/01/11 01:15:09;;;;;;;18.13;12.33;;;;;;;-2.21;100.00;101499.78;5033112;28;20265;-57
2022/01/11 01:17:35;;;;;;;15.90;11.33;;;;;;;-2.14;100.00;101499.09;5049566;28;20175;-57
2022/01/11 01:20:00;;;;;;;16.50;12.17;;;;;;;-2.09;100.00;101501.72;5050039;28;20199;-58
2022/01/11 01:22:26;;;;;;;17.40;11.97;;;;;;;-2.15;100.00;101501.59;5039296;28;20220;-57
2022/01/11 01:24:51;;;;;;;17.13;11.33;;;;;;;-2.10;100.00;101500.00;5061216;28;20193;-59
2022/01/11 01:27:16;;;;;;;17.07;12.17;;;;;;;-2.13;100.00;101500.81;5071415;28;20656;-57
2022/01/11 01:29:42;;;;;;;19.17;11.53;;;;;;;-2.08;100.00;101503.41;5071453;28;20646;-57
2022/01/11 01:32:09;;;;;;;16.47;11.17;;;;;;;-2.10;100.00;101505.06;5059656;28;20226;-57
2022/01/11 01:34:35;;;;;;;18.23;12.23;;;;;;;-2.09;100.00;101501.72;5070792;28;20602;-57
2022/01/11 01:37:01;;;;;;;21.40;12.00;;;;;;;-2.09;100.00;101506.75;5071110;28;20447;-57
2022/01/11 01:39:26;;;;;;;18.23;11.17;;;;;;;-2.09;100.00;101503.41;5070964;28;20173;-57
2022/01/11 01:41:52;;;;;;;17.53;11.60;;;;;;;-2.28;100.00;101505.53;5059446;28;20592;-57
2022/01/11 01:44:18;;;;;;;17.90;11.40;;;;;;;-2.31;100.00;101511.38;5070595;28;20175;-57
2022/01/11 01:46:43;;;;;;;19.50;12.33;;;;;;;-2.22;100.00;101512.38;5067535;28;20664;-57
2022/01/11 01:49:15;;;;;;;19.67;11.63;;;;;;;-2.14;100.00;101513.38;5054556;28;20206;-57
2022/01/11 01:51:41;;;;;;;20.73;11.50;;;;;;;-2.08;100.00;101512.63;5043590;28;20327;-57
2022/01/11 01:54:06;;;;;;;20.17;11.17;;;;;;;-2.02;100.00;101511.09;5054755;28;20422;-57
2022/01/11 01:56:33;;;;;;;20.70;12.43;;;;;;;-2.03;100.00;101511.94;5056293;28;20225;-57
2022/01/11 01:58:59;;;;;;;23.33;14.00;;;;;;;-2.29;100.00;101514.75;5055563;28;20175;-57
2022/01/11 02:01:26;;;;;;;19.10;12.20;;;;;;;-2.28;100.00;101524.03;5041958;28;20499;-57
2022/01/11 02:03:51;;;;;;;17.20;12.60;;;;;;;-2.05;100.00;101522.81;5062449;28;20171;-57
2022/01/11 02:06:18;;;;;;;21.43;12.70;;;;;;;-1.93;100.00;101520.53;5070189;28;20258;-58
2022/01/11 02:08:46;;;;;;;19.63;13.60;;;;;;;-2.35;100.00;101519.66;5074719;28;20632;-58
2022/01/11 02:11:15;;;;;;;23.73;13.13;;;;;;;-2.04;100.00;101522.00;5063392;28;20487;-58
2022/01/11 02:13:41;;;;;;;18.93;13.33;;;;;;;-1.86;100.00;101529.06;5073793;28;20254;-57
2022/01/11 02:16:06;;;;;;;22.90;13.43;;;;;;;-1.72;100.00;101529.34;5074548;28;20627;-57
2022/01/11 02:18:31;;;;;;;19.70;12.70;;;;;;;-1.62;100.00;101527.00;5074510;28;20644;-57
2022/01/11 02:20:58;;;;;;;19.30;13.10;;;;;;;-1.46;100.00;101529.81;5063270;28;20239;-57
2022/01/11 02:23:27;;;;;;;22.27;15.00;;;;;;;-1.76;100.00;101525.03;5073861;28;20182;-56
2022/01/11 02:25:53;;;;;;;20.37;13.37;;;;;;;-1.65;100.00;101523.56;5074212;28;20853;-56
2022/01/11 02:28:21;;;;;;;19.43;13.90;;;;;;;-1.59;100.00;101522.84;5074264;28;20182;-56
2022/01/11 02:30:47;;;;;;;16.87;12.80;;;;;;;-1.48;100.00;101521.38;5046036;28;20232;-56
2022/01/11 02:33:28;;;;;;;19.13;14.10;;;;;;;-1.68;100.00;101524.38;5073519;28;20247;-57
2022/01/11 02:35:53;;;;;;;20.97;13.43;;;;;;;-1.76;100.00;101532.63;5074072;28;20653;-56
2022/01/11 02:38:19;;;;;;;26.23;15.40;;;;;;;-1.71;100.00;101533.53;5074238;28;20180;-57
2022/01/11 02:40:44;;;;;;;19.07;14.00;;;;;;;-1.62;100.00;101527.00;5063196;28;20624;-56
2022/01/11 02:43:10;;;;;;;17.67;12.47;;;;;;;-1.45;100.00;101529.00;5073217;28;20178;-57
2022/01/11 02:45:35;;;;;;;20.67;13.83;;;;;;;-1.33;100.00;101534.28;5073941;28;20168;-56
2022/01/11 02:48:01;;;;;;;16.83;13.10;;;;;;;-1.32;100.00;101530.91;5060096;28;20188;-56
2022/01/11 02:50:32;;;;;;;22.27;13.33;;;;;;;-1.31;100.00;101535.13;5043558;28;20624;-56
2022/01/11 02:52:57;;;;;;;19.10;12.90;;;;;;;-1.28;100.00;101529.28;5052511;28;20176;-56
2022/01/11 02:55:22;;;;;;;19.00;13.53;;;;;;;-1.39;100.00;101536.69;5062698;28;20266;-56
2022/01/11 02:57:48;;;;;;;21.30;12.80;;;;;;;-1.37;100.00;101535.03;5074069;28;20175;-56
2022/01/11 03:00:19;;;;;;;18.17;12.67;;;;;;;-1.44;100.00;101537.41;5063190;28;20225;-56
2022/01/11 03:02:45;;;;;;;22.03;13.17;;;;;;;-1.41;100.00;101540.84;5073229;28;20172;-58
2022/01/11 03:05:11;;;;;;;15.90;11.77;;;;;;;-1.42;100.00;101543.34;5074525;28;20654;-56
2022/01/11 03:07:38;;;;;;;22.83;11.77;;;;;;;-1.42;100.00;101546.72;5073472;28;20200;-56
2022/01/11 03:10:54;;;;;;;18.80;12.20;;;;;;;-1.50;100.00;101546.59;5062775;28;20170;-57
2022/01/11 03:13:03;;;;;;;22.07;12.47;;;;;;;-1.50;100.00;101540.66;5062022;28;20182;-56
2022/01/11 03:15:28;;;;;;;21.27;12.53;;;;;;;-1.53;100.00;101546.50;5073141;28;20467;-56
2022/01/11 03:17:54;;;;;;;15.80;11.63;;;;;;;-1.59;100.00;101543.88;5073288;28;20737;-56
2022/01/11 03:20:19;;;;;;;16.70;11.17;;;;;;;-1.58;100.00;101544.75;5062573;28;20230;-56
2022/01/11 03:22:45;;;;;;;19.10;12.27;;;;;;;-1.63;100.00;101553.06;5072256;28;20199;-57
2022/01/11 03:25:12;;;;;;;20.50;12.60;;;;;;;-1.51;100.00;101554.13;5072791;28;20173;-57
2022/01/11 03:27:38;;;;;;;19.03;12.90;;;;;;;-1.52;100.00;101555.78;5073348;28;20200;-57
2022/01/11 03:30:04;;;;;;;17.07;12.13;;;;;;;-1.55;100.00;101557.41;5062577;28;20227;-57
2022/01/11 03:32:30;;;;;;;18.97;11.87;;;;;;;-1.62;100.00;101556.44;5071818;28;20167;-56
2022/01/11 03:34:55;;;;;;;17.23;11.40;;;;;;;-1.79;100.00;101562.03;5072665;28;20191;-56
2022/01/11 03:37:20;;;;;;;16.37;11.80;;;;;;;-1.84;100.00;101565.25;5072983;28;20620;-56
2022/01/11 03:39:47;;;;;;;18.63;11.53;;;;;;;-1.82;100.00;101569.50;5072908;28;20179;-57
2022/01/11 03:42:13;;;;;;;19.60;13.07;;;;;;;-2.05;100.00;101581.63;5060963;28;20238;-56
2022/01/11 03:44:38;;;;;;;17.37;12.70;;;;;;;-1.93;100.00;101575.16;5072698;28;20181;-56
2022/01/11 03:47:04;;;;;;;19.80;12.57;;;;;;;-1.72;100.00;101580.66;5068312;28;20184;-56
2022/01/11 03:49:29;;;;;;;17.17;12.83;;;;;;;-1.66;100.00;101582.44;5062676;28;20190;-56
2022/01/11 03:51:55;;;;;;;17.37;12.33;;;;;;;-1.55;100.00;101587.69;5059873;28;20225;-56
2022/01/11 03:54:27;;;;;;;18.37;12.43;;;;;;;-1.47;100.00;101581.97;5060015;28;20672;-56
2022/01/11 03:56:53;;;;;;;15.77;12.80;;;;;;;-1.49;100.00;101583.63;5052766;28;20164;-56
2022/01/11 03:59:20;;;;;;;18.67;13.23;;;;;;;-1.37;100.00;101588.03;5052611;28;20229;-56
2022/01/11 04:01:46;;;;;;;16.67;12.00;;;;;;;-1.37;100.00;101594.78;5030743;28;20237;-57
2022/01/11 04:04:12;;;;;;;16.23;12.20;;;;;;;-1.34;100.00;101589.75;5052019;28;20631;-57
2022/01/11 04:06:38;;;;;;;19.17;12.27;;;;;;;-1.23;100.00;101585.75;5052383;28;20255;-57
2022/01/11 04:09:05;;;;;;;18.33;12.10;;;;;;;-1.13;100.00;101581.72;5052665;28;20560;-57
2022/01/11 04:11:31;;;;;;;15.10;12.13;;;;;;;-1.07;100.00;101586.03;5040218;28;20713;-57
2022/01/11 04:13:56;;;;;;;17.67;12.97;;;;;;;-1.05;100.00;101589.47;5051885;28;20169;-57
2022/01/11 04:16:21;;;;;;;18.53;12.07;;;;;;;-1.02;100.00;101582.78;5041043;28;20239;-57
2022/01/11 04:18:47;;;;;;;18.83;13.00;;;;;;;-1.00;100.00;101582.81;5034418;28;20172;-57
2022/01/11 04:21:12;;;;;;;17.40;12.43;;;;;;;-0.99;100.00;101592.94;5040891;28;20267;-56
2022/01/11 04:23:39;;;;;;;18.07;13.10;;;;;;;-0.95;100.00;101593.00;5051273;28;20561;-57
2022/01/11 04:26:04;;;;;;;18.40;12.33;;;;;;;-0.91;100.00;101594.75;5052187;28;20207;-57
2022/01/11 04:28:30;;;;;;;17.47;11.83;;;;;;;-0.98;100.00;101582.00;5052140;28;20178;-57
2022/01/11 04:31:00;;;;;;;18.03;11.80;;;;;;;-1.24;100.00;101583.22;5020567;28;20228;-58
2022/01/11 04:33:27;;;;;;;17.17;13.03;;;;;;;-1.17;100.00;101590.91;5050610;28;20289;-57
2022/01/11 04:35:53;;;;;;;16.97;11.73;;;;;;;-1.01;100.00;101591.19;5051696;28;20181;-58
2022/01/11 04:38:22;;;;;;;16.77;12.33;;;;;;;-0.89;100.00;101593.94;5051779;28;20188;-58
2022/01/11 04:40:48;;;;;;;20.37;13.20;;;;;;;-0.84;100.00;101594.03;5040789;28;20229;-57
2022/01/11 04:43:14;;;;;;;15.00;12.23;;;;;;;-0.89;100.00;101596.47;5050884;28;20177;-58
2022/01/11 04:45:39;;;;;;;14.40;11.20;;;;;;;-0.82;100.00;101594.88;5051463;28;20256;-58
2022/01/11 04:48:05;;;;;;;17.80;11.30;;;;;;;-0.94;100.00;101602.25;5051577;28;20176;-57
2022/01/11 04:50:31;;;;;;;19.03;11.50;;;;;;;-0.98;100.00;101606.41;5040948;28;20243;-58
2022/01/11 04:52:57;;;;;;;15.37;10.83;;;;;;;-0.88;100.00;101600.69;5050577;28;20174;-58
2022/01/11 04:55:23;;;;;;;17.90;11.07;;;;;;;-0.85;100.00;101607.47;5051060;28;20669;-58
2022/01/11 04:57:49;;;;;;;14.70;11.07;;;;;;;-0.83;100.00;101608.38;5033639;28;20311;-58
2022/01/11 05:00:16;;;;;;;14.57;10.70;;;;;;;-0.68;100.00;101618.72;5040884;28;20209;-57
2022/01/11 05:02:42;;;;;;;15.10;11.20;;;;;;;-0.62;100.00;101619.63;5050275;28;20603;-57
2022/01/11 05:05:07;;;;;;;14.60;10.57;;;;;;;-0.56;100.00;101614.69;5051034;28;20173;-57
2022/01/11 05:07:33;;;;;;;14.07;10.43;;;;;;;-0.54;100.00;101618.94;5051453;28;20178;-57
2022/01/11 05:09:58;;;;;;;16.03;11.70;;;;;;;-0.71;100.00;101616.16;5051365;28;20166;-57
2022/01/11 05:12:23;;;;;;;16.70;11.23;;;;;;;-0.60;100.00;101620.53;5039779;28;20232;-57
2022/01/11 05:14:49;;;;;;;14.60;10.87;;;;;;;-0.59;100.00;101620.53;5051129;28;20193;-57
2022/01/11 05:17:15;;;;;;;14.13;10.57;;;;;;;-0.56;100.00;101627.31;5051342;28;20169;-57
2022/01/11 05:19:40;;;;;;;15.33;10.73;;;;;;;-0.52;100.00;101626.53;5051407;28;20259;-57
2022/01/11 05:22:06;;;;;;;13.97;9.90;;;;;;;-0.54;100.00;101626.50;5039084;28;20357;-57
2022/01/11 05:24:31;;;;;;;13.47;10.33;;;;;;;-0.46;100.00;101633.38;5050865;28;20543;-56
2022/01/11 05:26:56;;;;;;;15.10;10.10;;;;;;;-0.53;100.00;101627.38;5049552;28;20170;-57
2022/01/11 05:29:22;;;;;;;14.53;10.20;;;;;;;-0.42;100.00;101623.34;5050750;28;20184;-57
2022/01/11 05:31:47;;;;;;;12.77;9.53;;;;;;;-0.36;100.00;101628.50;5039342;28;20776;-57
2022/01/11 05:34:12;;;;;;;13.60;9.10;;;;;;;-0.30;100.00;101622.66;5050307;28;20177;-57
2022/01/11 05:36:38;;;;;;;13.97;10.53;;;;;;;-0.54;100.00;101629.03;5050975;28;20173;-57
2022/01/11 05:39:04;;;;;;;15.33;11.70;;;;;;;-0.52;100.00;101631.59;5050858;28;20169;-57
2022/01/11 05:41:31;;;;;;;15.13;10.83;;;;;;;-0.46;100.00;101630.84;5039417;28;20610;-57
2022/01/11 05:43:56;;;;;;;13.20;9.57;;;;;;;-0.71;100.00;101626.25;5050372;28;20728;-57
2022/01/11 05:46:21;;;;;;;11.40;9.97;;;;;;;-0.56;100.00;101635.75;5050471;28;20179;-57
2022/01/11 05:48:47;;;;;;;15.47;10.00;;;;;;;-0.86;100.00;101633.56;5050859;28;20176;-57
2022/01/11 05:51:14;;;;;;;19.87;10.90;;;;;;;-0.75;100.00;101634.59;5039553;28;20284;-57
2022/01/11 05:53:40;;;;;;;13.77;9.80;;;;;;;-0.64;100.00;101632.25;5050001;28;20276;-57
2022/01/11 05:56:05;;;;;;;15.40;11.13;;;;;;;-0.87;100.00;101645.34;5050504;28;20657;-57
2022/01/11 05:58:30;;;;;;;14.03;8.87;;;;;;;-0.76;100.00;101642.16;5050479;28;20219;-57
2022/01/11 06:00:56;;;;;;;12.53;9.63;;;;;;;-0.88;100.00;101643.66;5039587;28;20229;-57
2022/01/11 06:03:21;;;;;;;13.37;10.00;;;;;;;-0.78;100.00;101642.13;5050240;28;20212;-57
2022/01/11 06:05:46;;;;;;;13.77;9.60;;;;;;;-1.03;100.00;101654.34;5050778;28;20166;-57
2022/01/11 06:08:16;;;;;;;17.07;10.83;;;;;;;-0.82;100.00;101646.28;5050755;28;20169;-57
2022/01/11 06:10:43;;;;;;;13.87;10.00;;;;;;;-0.88;100.00;101645.31;5039709;28;20275;-57
2022/01/11 06:13:08;;;;;;;13.13;9.50;;;;;;;-0.61;100.00;101641.56;5050005;28;20177;-57
2022/01/11 06:15:34;;;;;;;13.27;9.40;;;;;;;-0.60;100.00;101645.78;5050218;28;20536;-57
2022/01/11 06:17:59;;;;;;;12.40;10.03;;;;;;;-0.44;100.00;101647.72;5050608;28;20658;-57
2022/01/11 06:20:25;;;;;;;14.07;10.07;;;;;;;-0.62;100.00;101649.97;5039712;28;20371;-57
2022/01/11 06:22:50;;;;;;;12.77;9.57;;;;;;;-0.69;100.00;101651.56;5049668;28;20785;-57
2022/01/11 06:25:15;;;;;;;12.30;9.43;;;;;;;-0.71;100.00;101654.06;5050209;28;20173;-57
2022/01/11 06:27:42;;;;;;;12.77;9.90;;;;;;;-0.59;100.00;101648.34;5050562;28;20174;-57
2022/01/11 06:30:09;;;;;;;12.83;9.67;;;;;;;-0.99;100.00;101652.72;5022136;28;20163;-57
2022/01/11 06:32:34;;;;;;;13.93;10.00;;;;;;;-0.83;100.00;101653.84;5049274;28;20264;-57
2022/01/11 06:34:59;;;;;;;16.10;10.30;;;;;;;-0.68;100.00;101656.63;5053242;28;20556;-56
2022/01/11 06:37:25;;;;;;;14.73;10.27;;;;;;;-0.91;100.00;101655.38;5054070;28;20173;-56
2022/01/11 06:39:51;;;;;;;12.63;9.57;;;;;;;-0.94;100.00;101653.66;5054021;28;20260;-56
2022/01/11 06:42:17;;;;;;;13.77;10.37;;;;;;;-1.02;100.00;101660.22;5042498;28;20386;-56
2022/01/11 06:44:43;;;;;;;16.58;13.98;;;;;;;-0.55;100.00;101662.72;5044967;28;20516;-57
2022/01/11 06:47:08;;;;;;;19.43;11.13;;;;;;;-0.84;100.00;101667.28;5065863;28;20165;-57
2022/01/11 06:49:33;;;;;;;13.30;10.23;;;;;;;-1.12;100.00;101671.81;5066031;28;20176;-57
2022/01/11 06:51:59;;;;;;;12.00;9.77;;;;;;;-1.25;100.00;101670.75;5059216;28;20216;-57
2022/01/11 06:54:24;;;;;;;15.73;9.87;;;;;;;-1.10;100.00;101672.72;5060744;28;20181;-57
2022/01/11 06:56:49;;;;;;;13.50;9.60;;;;;;;-1.14;100.00;101676.00;5053752;28;20180;-57
2022/01/11 06:59:15;;;;;;;16.43;10.57;;;;;;;-1.38;100.00;101679.72;5053856;28;20264;-57
2022/01/11 07:01:40;;;;;;;12.87;10.17;;;;;;;-1.72;100.00;101681.56;5053265;28;20281;-57
2022/01/11 07:04:05;;;;;;;15.27;10.27;;;;;;;-1.46;100.00;101673.69;5060998;28;20484;-57
2022/01/11 07:06:31;;;;;;;14.90;10.07;;;;;;;-1.39;100.00;101685.63;5063340;28;20250;-59
2022/01/11 07:08:56;;;;;;;19.90;11.37;;;;;;;-1.73;100.00;101689.13;5064137;28;20216;-57
2022/01/11 07:11:23;;;;;;;15.93;11.03;;;;;;;-1.88;100.00;101703.06;5054413;28;20339;-56
2022/01/11 07:13:49;;;;;;;16.27;11.23;;;;;;;-1.74;100.00;101702.53;5061145;28;20173;-56
2022/01/11 07:16:14;;;;;;;19.70;14.00;;;;;;;-1.58;100.00;101698.69;5059167;28;20233;-57
2022/01/11 07:18:39;;;;;;;23.80;15.27;;;;;;;-1.69;100.00;101698.44;5062641;28;20663;-60
2022/01/11 07:21:05;;;;;;;21.57;14.43;;;;;;;-1.44;100.00;101706.53;5053179;28;20228;-57
2022/01/11 07:23:30;;;;;;;21.63;13.80;;;;;;;-1.36;100.00;101707.56;5057626;28;20291;-58
2022/01/11 07:25:55;;;;;;;16.87;12.37;;;;;;;-1.23;100.00;101706.13;5063122;28;20183;-58
2022/01/11 07:28:21;;;;;;;21.03;13.27;;;;;;;-1.16;100.00;101713.00;5062560;28;20342;-58
2022/01/11 07:30:46;;;;;;;21.30;13.00;;;;;;;-1.06;100.00;101714.88;5048179;28;20277;-58
2022/01/11 07:33:11;;;;;;;17.33;13.27;;;;;;;-1.30;100.00;101717.78;5057558;28;20188;-58
2022/01/11 07:35:37;;;;;;;18.30;12.83;;;;;;;-1.30;100.00;101721.16;5039710;28;20534;-58
2022/01/11 07:38:02;;;;;;;22.13;12.37;;;;;;;-1.23;100.00;101726.31;5050611;28;20189;-57
2022/01/11 07:40:28;;;;;;;14.80;11.73;;;;;;;-1.05;100.00;101719.13;5050599;28;20236;-57
2022/01/11 07:42:53;;;;;;;16.23;12.17;;;;;;;-1.19;100.00;101725.56;5051023;28;20537;-57
2022/01/11 07:45:19;;;;;;;15.63;11.77;;;;;;;-1.02;100.00;101724.25;5050962;28;20555;-58
2022/01/11 07:47:44;;;;;;;19.27;12.10;;;;;;;-0.90;100.00;101733.72;5051867;28;20181;-57
2022/01/11 07:50:11;;;;;;;12.50;10.70;;;;;;;-0.73;100.00;101736.56;5041094;28;20171;-57
2022/01/11 07:52:36;;;;;;;19.97;10.83;;;;;;;-0.67;100.00;101731.63;5048815;28;20269;-58
2022/01/11 07:55:02;;;;;;;15.93;10.67;;;;;;;-0.80;100.00;101739.78;5016495;28;20254;-58
2022/01/11 07:57:27;;;;;;;16.27;11.53;;;;;;;-0.76;100.00;101736.50;5032622;28;20202;-59
2022/01/11 07:59:53;;;;;;;14.53;10.50;;;;;;;-0.67;100.00;101740.84;5032514;28;20302;-57
2022/01/11 08:02:19;;;;;;;16.33;10.33;;;;;;;-0.56;100.00;101746.13;5046145;28;20224;-58
2022/01/11 08:04:44;;;;;;;14.27;10.87;;;;;;;-0.67;100.00;101749.31;5051867;28;20208;-57
2022/01/11 08:07:12;;;;;;;17.00;11.33;;;;;;;-0.55;100.00;101747.81;5051967;28;20590;-57
2022/01/11 08:09:38;;;;;;;16.30;10.90;;;;;;;-0.44;100.00;101745.50;5052121;28;20255;-56
2022/01/11 08:12:03;;;;;;;16.27;11.70;;;;;;;-0.36;100.00;101747.34;5023890;28;20985;-56
2022/01/11 08:14:29;;;;;;;17.53;10.73;;;;;;;-0.48;100.00;101744.59;5051816;28;20540;-57
2022/01/11 08:16:55;;;;;;;15.17;10.83;;;;;;;-0.54;100.00;101754.59;5040601;28;20252;-57
2022/01/11 08:19:25;;;;;;;17.90;11.00;;;;;;;-0.48;100.00;101764.81;5052132;28;20174;-56
2022/01/11 08:21:55;;;;;;;15.77;10.60;;;;;;;-0.60;100.00;101762.91;5023783;28;20256;-55
2022/01/11 08:24:23;;;;;;;11.80;9.70;;;;;;;-0.87;100.00;101750.59;5051816;28;20540;-58
2022/01/11 08:26:54;;;;;;;13.67;10.57;;;;;;;-0.93;100.00;101763.13;5034178;28;20271;-57
2022/01/11 08:29:20;;;;;;;13.30;10.17;;;;;;;-0.98;100.00;101768.06;5051968;28;20224;-58
2022/01/11 08:31:46;;;;;;;14.33;10.50;;;;;;;-0.91;100.00;101764.84;5006069;28;20618;-56
2022/01/11 08:34:14;;;;;;;12.70;10.13;;;;;;;-0.99;100.00;101767.22;5030526;28;20177;-57
2022/01/11 08:36:42;;;;;;;12.90;10.43;;;;;;;-0.77;100.00;101771.84;5031825;28;20166;-57
2022/01/11 08:39:08;;;;;;;12.07;9.23;;;;;;;-0.48;100.00;101779.97;5031604;28;20170;-57
2022/01/11 08:41:33;;;;;;;12.23;10.50;;;;;;;-0.30;100.00;101779.44;5006677;28;20311;-56
2022/01/11 08:43:59;;;;;;;15.23;10.93;;;;;;;-0.37;100.00;101780.19;5033847;28;20204;-58
2022/01/11 08:46:25;;;;;;;14.57;10.57;;;;;;;-0.24;100.00;101779.56;5039021;28;20182;-57
2022/01/11 08:48:50;;;;;;;13.63;10.57;;;;;;;-0.39;100.00;101790.25;5031469;28;20189;-58
2022/01/11 08:51:16;;;;;;;16.80;9.93;;;;;;;-0.49;100.00;101783.34;5020405;28;20702;-56
2022/01/11 08:53:41;;;;;;;13.67;9.10;;;;;;;-0.33;100.00;101787.84;5030440;28;20202;-57
2022/01/11 08:56:07;;;;;;;11.03;9.03;;;;;;;-0.46;100.00;101787.59;5045128;28;20224;-57
2022/01/11 08:58:33;;;;;;;13.77;9.00;;;;;;;-0.58;100.00;101788.19;5048641;28;20616;-57
2022/01/11 09:00:58;;;;;;;10.03;8.10;;;;;;;-0.70;100.00;101787.16;5040193;28;20233;-58
2022/01/11 09:03:23;;;;;;;11.37;7.63;;;;;;;-0.64;100.00;101788.97;5051061;28;20577;-58
2022/01/11 09:05:51;;;;;;;9.83;7.23;;;;;;;-0.31;100.00;101789.53;5049339;28;20759;-57
2022/01/11 09:08:17;;;;;;;9.88;8.88;;;;;;;0.18;100.00;101797.13;5034428;28;20806;-58
2022/01/11 09:10:42;;;;;;;11.07;7.77;;;;;;;0.10;100.00;101794.44;5024623;28;20478;-57
2022/01/11 09:13:07;;;;;;;11.90;7.80;;;;;;;0.04;100.00;101794.34;5031693;28;20180;-57
2022/01/11 09:15:33;;;;;;;14.87;8.10;;;;;;;-0.17;100.00;101791.47;5060339;28;20237;-57
2022/01/11 09:17:59;;;;;;;8.87;7.47;;;;;;;-0.10;100.00;101797.50;5061918;28;20187;-57
2022/01/11 09:20:24;;;;;;;10.53;8.57;;;;;;;-0.10;100.00;101794.13;5027605;28;20233;-58
2022/01/11 09:22:50;;;;;;;8.23;7.13;;;;;;;-0.14;100.00;101798.25;5058901;28;21024;-57
2022/01/11 09:25:15;;;;;;;9.57;8.57;;;;;;;0.17;100.00;101791.19;5058703;28;20657;-57
2022/01/11 09:27:41;;;;;;;11.20;9.10;;;;;;;0.34;100.00;101801.56;5055901;28;20231;-58
2022/01/11 09:30:12;;;;;;;9.77;7.40;;;;;;;0.37;100.00;101801.59;5051660;28;20168;-57
2022/01/11 09:32:38;;;;;;;11.90;9.70;;;;;;;0.59;100.00;101802.78;5062788;28;20165;-57
2022/01/11 09:35:05;;;;;;;15.63;9.93;;;;;;;0.51;100.00;101800.97;5070341;28;20192;-56
2022/01/11 09:37:31;;;;;;;8.43;7.53;;;;;;;0.59;100.00;101805.31;5070439;28;20634;-56
2022/01/11 09:39:56;;;;;;;11.77;7.57;;;;;;;0.87;100.00;101799.75;5063848;28;20177;-57
2022/01/11 09:42:23;;;;;;;11.43;9.80;;;;;;;1.04;100.00;101800.84;5039312;28;20233;-56
2022/01/11 09:44:48;;;;;;;10.97;7.43;;;;;;;0.72;99.23;101803.81;5050206;28;20184;-57
2022/01/11 09:47:14;;;;;;;13.20;9.03;;;;;;;1.05;99.62;101797.47;5049906;28;20268;-57
2022/01/11 09:49:42;;;;;;;18.10;10.00;;;;;;;1.35;99.21;101793.56;5060796;28;20242;-57
2022/01/11 09:52:09;;;;;;;13.70;10.97;;;;;;;1.69;97.52;101799.00;5059034;28;20235;-57
2022/01/11 09:54:39;;;;;;;12.03;9.50;;;;;;;1.70;95.73;101798.19;5056023;28;20169;-57
2022/01/11 09:57:07;;;;;;;12.63;10.03;;;;;;;1.75;94.97;101800.78;5047735;28;20174;-58
2022/01/11 09:59:32;;;;;;;10.10;8.37;;;;;;;2.01;94.37;101795.91;5031689;28;20627;-58
2022/01/11 10:01:58;;;;;;;11.90;9.20;;;;;;;2.26;93.10;101798.66;5022801;28;20264;-58
2022/01/11 10:04:26;;;;;;;11.50;8.47;;;;;;;2.04;91.96;101801.00;5030278;28;20175;-58
2022/01/11 10:07:01;;;;;;;10.93;6.90;;;;;;;1.92;92.50;101806.84;5030620;28;20568;-58
2022/01/11 10:09:29;;;;;;;8.43;7.50;;;;;;;2.12;92.91;101806.13;5032525;28;20676;-58
2022/01/11 10:11:57;;;;;;;9.77;7.53;;;;;;;2.17;91.81;101806.19;5014819;28;20231;-58
2022/01/11 10:14:33;;;;;;;9.67;7.80;;;;;;;2.41;91.22;101801.28;5033743;28;20176;-58
2022/01/11 10:17:20;;;;;;;10.33;7.70;;;;;;;2.44;89.54;101802.97;5034151;28;20179;-58
2022/01/11 10:19:49;;;;;;;13.23;7.63;;;;;;;2.49;89.40;101803.03;5033834;28;20192;-58
2022/01/11 10:22:19;;;;;;;14.13;7.63;;;;;;;2.05;90.22;101804.41;5047352;28;20674;-58
2022/01/11 10:24:48;;;;;;;8.80;7.80;;;;;;;2.32;91.91;101795.28;5034096;28;20210;-58
2022/01/11 10:27:21;;;;;;;11.93;7.80;;;;;;;2.36;90.95;101802.94;5035765;28;20202;-58
2022/01/11 10:29:50;;;;;;;10.97;7.90;;;;;;;2.48;90.50;101801.31;5039710;28;20186;-58
2022/01/11 10:32:21;;;;;;;10.00;8.27;;;;;;;2.74;90.11;101811.63;5013523;28;20224;-58
2022/01/11 10:34:51;;;;;;;13.13;8.40;;;;;;;2.99;88.75;101799.03;5021798;28;20206;-58
2022/01/11 10:37:34;;;;;;;11.23;7.97;;;;;;;2.42;89.39;101799.59;5024792;28;20174;-58
2022/01/11 10:40:24;;;;;;;10.97;8.50;;;;;;;2.76;88.73;101801.50;5020168;28;20646;-58
2022/01/11 10:42:56;;;;;;;9.23;7.97;;;;;;;2.86;89.14;101800.69;5006653;28;20240;-58
2022/01/11 10:45:23;;;;;;;10.27;8.13;;;;;;;2.96;87.39;101799.03;5042796;28;20234;-58
2022/01/11 10:47:55;;;;;;;11.07;8.07;;;;;;;3.16;86.76;101794.03;5040702;28;20177;-58
2022/01/11 10:50:34;;;;;;;13.37;7.87;;;;;;;3.07;85.80;101800.78;5033894;28;20271;-58
2022/01/11 10:53:02;;;;;;;9.03;7.90;;;;;;;3.28;86.57;101798.31;5050708;28;20623;-58
2022/01/11 10:55:31;;;;;;;12.60;7.97;;;;;;;3.11;85.93;101795.72;5053460;28;20192;-58
2022/01/11 10:58:02;;;;;;;13.30;8.10;;;;;;;3.22;86.73;101800.00;5053700;28;20207;-58
2022/01/11 11:00:37;;;;;;;12.20;8.10;;;;;;;3.32;85.98;101795.78;5042775;28;20324;-58
2022/01/11 11:03:14;;;;;;;11.20;8.53;;;;;;;3.45;85.75;101796.66;5052971;28;20172;-58
2022/01/11 11:05:49;;;;;;;14.80;9.83;;;;;;;3.14;86.29;101798.25;5053569;28;20263;-58
2022/01/11 11:08:20;;;;;;;10.93;8.03;;;;;;;2.83;87.15;101798.13;5053669;28;20660;-58